createdAt,value
2024-01-18T00:01:40.462Z,97748.75
2024-01-18T00:05:06.987Z,97753.11
2024-01-18T00:08:33.116Z,97755.11
2024-01-18T00:11:59.378Z,97759.00
2024-01-18T00:15:25.718Z,97767.29
2024-01-18T00:18:51.695Z,97767.29
2024-01-18T00:22:18.175Z,97766.36
2024-01-18T00:25:44.394Z,97759.31
2024-01-18T00:29:10.623Z,97751.09
2024-01-18T00:32:36.894Z,97748.64
2024-01-18T00:36:03.139Z,97763.34
2024-01-18T00:39:29.297Z,97772.92
2024-01-18T00:42:55.574Z,97775.27
2024-01-18T00:46:23.354Z,97778.80
2024-01-18T00:49:49.102Z,97777.08
2024-01-18T00:53:14.790Z,97778.52
2024-01-18T00:56:41.188Z,97774.37
2024-01-18T01:00:09.290Z,97774.43
2024-01-18T01:03:35.564Z,97777.71
2024-01-18T01:07:02.055Z,97782.10
2024-01-18T01:10:28.535Z,97786.44
2024-01-18T01:13:55.069Z,97779.13
2024-01-18T01:17:20.973Z,97779.17
2024-01-18T01:20:46.929Z,97771.94
2024-01-18T01:24:12.984Z,97780.57
2024-01-18T01:27:38.996Z,97778.54
2024-01-18T01:31:05.738Z,97779.17
2024-01-18T01:34:32.514Z,97785.40
2024-01-18T01:37:58.672Z,97788.41
2024-01-18T01:41:24.853Z,97793.75
2024-01-18T01:44:51.516Z,97798.16
2024-01-18T01:48:18.323Z,97804.27
2024-01-18T01:51:50.236Z,97805.91
2024-01-18T01:55:17.203Z,97801.41
2024-01-18T01:58:43.041Z,97802.52
2024-01-18T02:02:10.386Z,97791.64
2024-01-18T02:05:36.618Z,97782.22
2024-01-18T02:09:03.659Z,97774.66
2024-01-18T02:12:30.930Z,97776.01
2024-01-18T02:15:57.035Z,97782.13
2024-01-18T02:19:22.958Z,97792.10
2024-01-18T02:22:50.218Z,97802.36
2024-01-18T02:26:16.868Z,97804.68
2024-01-18T02:29:43.350Z,97808.27
2024-01-18T02:33:09.431Z,97804.56
2024-01-18T02:36:36.728Z,97796.20
2024-01-18T02:40:03.153Z,97796.45
2024-01-18T02:43:29.585Z,97809.64
2024-01-18T02:46:56.286Z,97807.44
2024-01-18T02:50:22.459Z,97801.05
2024-01-18T02:53:48.694Z,97800.98
2024-01-18T02:57:14.767Z,97808.56
2024-01-18T03:00:41.292Z,97807.77
2024-01-18T03:04:08.903Z,97809.65
2024-01-18T03:07:34.782Z,97821.65
2024-01-18T03:11:00.982Z,97837.34
2024-01-18T03:14:26.928Z,97840.43
2024-01-18T03:17:52.591Z,97839.52
2024-01-18T03:21:19.360Z,97845.44
2024-01-18T03:24:45.378Z,97852.73
2024-01-18T03:28:11.205Z,97849.95
2024-01-18T03:31:37.904Z,97856.04
2024-01-18T03:35:03.400Z,97855.30
2024-01-18T03:38:28.973Z,97856.56
2024-01-18T03:41:55.070Z,97854.03
2024-01-18T03:45:20.921Z,97854.99
2024-01-18T03:48:46.936Z,97865.31
2024-01-18T03:52:13.660Z,97870.64
2024-01-18T03:55:40.152Z,97873.24
2024-01-18T03:59:07.376Z,97876.02
2024-01-18T04:02:33.388Z,97875.48
2024-01-18T04:06:00.139Z,97892.91
2024-01-18T04:09:26.540Z,97905.92
2024-01-18T04:12:52.808Z,97909.99
2024-01-18T04:16:18.635Z,97913.55
2024-01-18T04:19:45.146Z,97913.98
2024-01-18T04:23:11.541Z,97919.95
2024-01-18T04:26:37.132Z,97932.97
2024-01-18T04:30:07.208Z,97936.81
2024-01-18T04:33:33.020Z,97941.70
2024-01-18T04:36:58.908Z,97940.98
2024-01-18T04:40:24.912Z,97936.11
2024-01-18T04:43:50.869Z,97940.41
2024-01-18T04:47:17.421Z,97950.93
2024-01-18T04:50:43.339Z,97956.40
2024-01-18T04:54:09.258Z,97955.85
2024-01-18T04:57:37.025Z,97964.58
2024-01-18T05:01:03.505Z,97970.19
2024-01-18T05:04:30.668Z,97974.36
2024-01-18T05:07:57.689Z,97975.73
2024-01-18T05:11:23.825Z,97981.50
2024-01-18T05:14:49.957Z,97992.14
2024-01-18T05:18:16.190Z,97994.88
2024-01-18T05:21:42.458Z,98000.89
2024-01-18T05:25:09.821Z,98005.07
2024-01-18T05:28:35.445Z,98010.97
2024-01-18T05:32:01.847Z,98000.72
2024-01-18T05:35:27.874Z,98001.63
2024-01-18T05:38:54.511Z,98000.33
2024-01-18T05:42:20.715Z,97989.02
2024-01-18T05:45:46.520Z,97994.88
2024-01-18T05:49:12.664Z,98001.08
2024-01-18T05:52:38.837Z,98009.58
2024-01-18T05:56:04.825Z,98015.67
2024-01-18T05:59:30.900Z,98025.05
2024-01-18T06:02:58.055Z,98030.81
2024-01-18T06:06:24.009Z,98040.17
2024-01-18T06:09:50.359Z,98042.94
2024-01-18T06:13:16.761Z,98044.89
2024-01-18T06:16:43.209Z,98042.87
2024-01-18T06:20:11.094Z,98043.86
2024-01-18T06:23:37.204Z,98053.25
2024-01-18T06:27:03.839Z,98059.85
2024-01-18T06:30:30.132Z,98069.58
2024-01-18T06:33:57.648Z,98066.48
2024-01-18T06:37:24.109Z,98074.40
2024-01-18T06:40:50.229Z,98081.05
2024-01-18T06:44:16.107Z,98092.70
2024-01-18T06:47:42.089Z,98097.25
2024-01-18T06:51:08.272Z,98095.73
2024-01-18T06:54:34.312Z,98096.21
2024-01-18T06:58:03.854Z,98091.98
2024-01-18T07:01:30.331Z,98097.98
2024-01-18T07:04:56.666Z,98097.60
2024-01-18T07:08:22.479Z,98099.92
2024-01-18T07:11:48.760Z,98101.21
2024-01-18T07:15:15.294Z,98114.53
2024-01-18T07:18:41.612Z,98134.83
2024-01-18T07:22:09.149Z,98148.28
2024-01-18T07:25:37.949Z,98146.60
2024-01-18T07:29:04.389Z,98143.41
2024-01-18T07:32:30.436Z,98146.64
2024-01-18T07:35:56.279Z,98151.02
2024-01-18T07:39:22.327Z,98155.16
2024-01-18T07:42:48.770Z,98155.17
2024-01-18T07:46:17.603Z,98161.93
2024-01-18T07:49:50.066Z,98169.16
2024-01-18T07:53:16.525Z,98170.35
2024-01-18T07:56:43.584Z,98169.29
2024-01-18T08:00:12.912Z,98172.65
2024-01-18T08:03:39.542Z,98178.13
2024-01-18T08:07:05.902Z,98184.10
2024-01-18T08:10:32.217Z,98187.83
2024-01-18T08:13:58.241Z,98198.48
2024-01-18T08:17:23.899Z,98205.52
2024-01-18T08:20:50.323Z,98204.41
2024-01-18T08:24:16.372Z,98206.37
2024-01-18T08:27:44.055Z,98211.94
2024-01-18T08:31:10.046Z,98214.70
2024-01-18T08:34:37.337Z,98222.61
2024-01-18T08:38:03.521Z,98226.98
2024-01-18T08:41:31.720Z,98232.19
2024-01-18T08:44:58.179Z,98236.86
2024-01-18T08:48:24.343Z,98241.04
2024-01-18T08:51:49.997Z,98247.21
2024-01-18T08:55:16.714Z,98246.28
2024-01-18T08:58:42.761Z,98240.20
2024-01-18T09:02:14.584Z,98247.88
2024-01-18T09:05:47.441Z,98266.36
2024-01-18T09:09:15.004Z,98285.34
2024-01-18T09:12:40.758Z,98287.51
2024-01-18T09:16:08.404Z,98283.45
2024-01-18T09:19:35.496Z,98287.89
2024-01-18T09:23:09.413Z,98304.04
2024-01-18T09:26:39.515Z,98305.95
2024-01-18T09:30:06.724Z,98307.02
2024-01-18T09:33:32.271Z,98312.21
2024-01-18T09:36:59.707Z,98311.20
2024-01-18T09:40:30.266Z,98312.67
2024-01-18T09:44:04.705Z,98313.60
2024-01-18T09:47:31.263Z,98315.73
2024-01-18T09:50:59.131Z,98322.61
2024-01-18T09:54:25.244Z,98320.08
2024-01-18T09:57:57.032Z,98328.48
2024-01-18T10:01:25.302Z,98329.61
2024-01-18T10:04:51.263Z,98332.00
2024-01-18T10:08:17.978Z,98332.18
2024-01-18T10:11:45.577Z,98330.02
2024-01-18T10:15:13.202Z,98325.59
2024-01-18T10:18:40.507Z,98330.60
2024-01-18T10:22:08.692Z,98339.05
2024-01-18T10:25:37.017Z,98346.13
2024-01-18T10:29:04.512Z,98349.67
2024-01-18T10:32:36.130Z,98352.63
2024-01-18T10:36:02.605Z,98349.04
2024-01-18T10:39:28.635Z,98350.70
2024-01-18T10:42:54.906Z,98352.51
2024-01-18T10:46:22.617Z,98353.48
2024-01-18T10:49:48.914Z,98360.38
2024-01-18T10:53:16.961Z,98371.45
2024-01-18T10:56:42.813Z,98374.53
2024-01-18T11:00:17.573Z,98375.94
2024-01-18T11:03:47.928Z,98376.66
2024-01-18T11:07:16.808Z,98380.94
2024-01-18T11:10:43.685Z,98380.05
2024-01-18T11:14:13.186Z,98386.48
2024-01-18T11:17:44.648Z,98390.93
2024-01-18T11:21:11.052Z,98390.47
2024-01-18T11:24:38.348Z,98387.10
2024-01-18T11:28:04.685Z,98384.34
2024-01-18T11:31:52.756Z,98379.13
2024-01-18T11:35:21.989Z,98385.56
2024-01-18T11:38:49.809Z,98381.95
2024-01-18T11:42:19.440Z,98374.52
2024-01-18T11:45:50.465Z,98381.58
2024-01-18T11:49:17.418Z,98383.60
2024-01-18T11:52:45.804Z,98380.23
2024-01-18T11:56:12.885Z,98382.85
2024-01-18T11:59:39.371Z,98384.56
2024-01-18T12:03:08.641Z,98391.17
2024-01-18T12:06:35.262Z,98401.31
2024-01-18T12:10:02.118Z,98399.91
2024-01-18T12:13:29.789Z,98406.54
2024-01-18T12:16:56.371Z,98413.77
2024-01-18T12:20:22.618Z,98415.20
2024-01-18T12:23:49.723Z,98411.37
2024-01-18T12:27:17.006Z,98416.48
2024-01-18T12:30:44.903Z,98418.88
2024-01-18T12:34:11.972Z,98422.86
2024-01-18T12:37:39.487Z,98432.73
2024-01-18T12:41:06.555Z,98444.84
2024-01-18T12:44:32.761Z,98449.35
2024-01-18T12:47:59.047Z,98448.90
2024-01-18T12:51:25.544Z,98446.31
2024-01-18T12:54:52.103Z,98446.71
2024-01-18T12:58:19.232Z,98454.27
2024-01-18T13:01:52.777Z,98463.13
2024-01-18T13:05:19.022Z,98464.37
2024-01-18T13:08:45.305Z,98464.05
2024-01-18T13:12:11.965Z,98469.53
2024-01-18T13:15:40.129Z,98474.41
2024-01-18T13:19:08.090Z,98480.92
2024-01-18T13:22:34.620Z,98489.91
2024-01-18T13:26:00.646Z,98494.06
2024-01-18T13:29:26.918Z,98495.73
2024-01-18T13:32:57.258Z,98496.93
2024-01-18T13:36:23.697Z,98495.35
2024-01-18T13:39:49.646Z,98497.56
2024-01-18T13:43:15.948Z,98507.42
2024-01-18T13:46:42.411Z,98498.61
2024-01-18T13:50:10.225Z,98502.75
2024-01-18T13:53:37.858Z,98501.39
2024-01-18T13:57:04.673Z,98497.36
2024-01-18T14:00:30.835Z,98510.94
2024-01-18T14:03:57.307Z,98521.78
2024-01-18T14:07:23.404Z,98531.23
2024-01-18T14:10:49.791Z,98541.46
2024-01-18T14:14:15.855Z,98545.83
2024-01-18T14:17:41.515Z,98541.34
2024-01-18T14:21:09.134Z,98537.95
2024-01-18T14:24:35.322Z,98551.21
2024-01-18T14:28:03.177Z,98549.40
2024-01-18T14:31:29.701Z,98550.95
2024-01-18T14:34:56.041Z,98552.77
2024-01-18T14:38:22.824Z,98560.08
2024-01-18T14:41:48.708Z,98567.06
2024-01-18T14:45:15.160Z,98579.50
2024-01-18T14:48:41.965Z,98589.17
2024-01-18T14:52:12.233Z,98588.58
2024-01-18T14:55:39.841Z,98588.92
2024-01-18T14:59:06.140Z,98591.89
2024-01-18T15:02:32.891Z,98600.40
2024-01-18T15:05:59.223Z,98607.80
2024-01-18T15:09:25.482Z,98617.44
2024-01-18T15:12:52.491Z,98628.94
2024-01-18T15:16:19.222Z,98639.07
2024-01-18T15:19:45.829Z,98645.09
2024-01-18T15:23:12.233Z,98649.63
2024-01-18T15:26:37.862Z,98651.80
2024-01-18T15:30:05.931Z,98660.06
2024-01-18T15:33:32.001Z,98672.73
2024-01-18T15:36:58.333Z,98686.05
2024-01-18T15:40:24.706Z,98685.38
2024-01-18T15:43:50.989Z,98687.94
2024-01-18T15:47:16.560Z,98689.98
2024-01-18T15:50:42.220Z,98696.95
2024-01-18T15:54:08.626Z,98703.36
2024-01-18T15:57:34.711Z,98705.27
2024-01-18T16:01:02.060Z,98715.84
2024-01-18T16:04:28.435Z,98716.85
2024-01-18T16:07:54.662Z,98709.75
2024-01-18T16:11:20.583Z,98715.92
2024-01-18T16:14:48.273Z,98723.58
2024-01-18T16:18:14.348Z,98727.11
2024-01-18T16:21:40.087Z,98726.34
2024-01-18T16:25:07.538Z,98735.78
2024-01-18T16:28:34.802Z,98742.40
2024-01-18T16:32:02.568Z,98751.86
2024-01-18T16:35:30.980Z,98757.64
2024-01-18T16:38:56.677Z,98771.85
2024-01-18T16:42:22.299Z,98779.77
2024-01-18T16:45:48.384Z,98784.34
2024-01-18T16:49:14.984Z,98788.92
2024-01-18T16:52:41.292Z,98796.08
2024-01-18T16:56:08.108Z,98803.20
2024-01-18T16:59:33.559Z,98811.02
2024-01-18T17:02:59.400Z,98814.58
2024-01-18T17:06:26.014Z,98815.89
2024-01-18T17:09:52.987Z,98821.98
2024-01-18T17:13:19.117Z,98824.52
2024-01-18T17:16:45.251Z,98835.80
2024-01-18T17:20:12.711Z,98843.39
2024-01-18T17:23:39.170Z,98848.89
2024-01-18T17:27:05.606Z,98857.79
2024-01-18T17:30:31.746Z,98861.55
2024-01-18T17:33:58.152Z,98866.44
2024-01-18T17:37:24.452Z,98867.03
2024-01-18T17:40:50.739Z,98872.50
2024-01-18T17:44:18.176Z,98877.55
2024-01-18T17:47:45.949Z,98879.54
2024-01-18T17:51:16.535Z,98887.06
2024-01-18T17:54:43.049Z,98893.96
2024-01-18T17:58:08.773Z,98894.45
2024-01-18T18:01:35.479Z,98888.04
2024-01-18T18:05:01.450Z,98891.63
2024-01-18T18:08:28.020Z,98904.52
2024-01-18T18:11:55.152Z,98913.02
2024-01-18T18:15:20.977Z,98916.77
2024-01-18T18:18:46.741Z,98919.51
2024-01-18T18:22:12.933Z,98924.99
2024-01-18T18:25:39.074Z,98932.53
2024-01-18T18:29:07.245Z,98935.94
2024-01-18T18:32:34.339Z,98940.88
2024-01-18T18:36:00.540Z,98949.54
2024-01-18T18:39:26.991Z,98948.65
2024-01-18T18:42:52.904Z,98953.54
2024-01-18T18:46:19.417Z,98957.23
2024-01-18T18:49:48.556Z,98964.50
2024-01-18T18:53:14.895Z,98975.98
2024-01-18T18:56:40.699Z,98978.60
2024-01-18T19:00:07.503Z,98985.97
2024-01-18T19:03:34.203Z,98988.06
2024-01-18T19:07:01.574Z,98993.33
2024-01-18T19:10:27.768Z,99004.45
2024-01-18T19:13:55.094Z,99011.61
2024-01-18T19:17:20.601Z,99019.17
2024-01-18T19:20:46.832Z,99037.58
2024-01-18T19:24:13.260Z,99049.89
2024-01-18T19:27:39.829Z,99058.51
2024-01-18T19:31:06.128Z,99058.14
2024-01-18T19:34:32.175Z,99070.48
2024-01-18T19:38:01.073Z,99082.77
2024-01-18T19:41:29.043Z,99092.33
2024-01-18T19:44:55.591Z,99100.30
2024-01-18T19:48:21.449Z,99109.98
2024-01-18T19:51:48.819Z,99121.98
2024-01-18T19:55:14.693Z,99118.05
2024-01-18T19:58:42.983Z,99124.05
2024-01-18T20:02:09.651Z,99132.39
2024-01-18T20:05:35.690Z,99138.86
2024-01-18T20:09:02.071Z,99151.96
2024-01-18T20:12:33.060Z,99150.44
2024-01-18T20:15:59.609Z,99157.40
2024-01-18T20:19:26.286Z,99164.52
2024-01-18T20:22:52.375Z,99172.47
2024-01-18T20:26:18.939Z,99172.08
2024-01-18T20:29:46.354Z,99182.90
2024-01-18T20:33:15.295Z,99193.05
2024-01-18T20:36:41.609Z,99197.20
2024-01-18T20:40:10.017Z,99208.98
2024-01-18T20:43:36.085Z,99212.04
2024-01-18T20:47:02.493Z,99214.40
2024-01-18T20:50:28.989Z,99213.58
2024-01-18T20:53:55.262Z,99215.77
2024-01-18T20:57:21.504Z,99219.73
2024-01-18T21:00:47.724Z,99221.02
2024-01-18T21:04:15.364Z,99222.67
2024-01-18T21:07:41.373Z,99231.80
2024-01-18T21:11:07.596Z,99236.69
2024-01-18T21:14:33.921Z,99239.98
2024-01-18T21:18:00.054Z,99240.67
2024-01-18T21:21:26.374Z,99246.90
2024-01-18T21:24:52.438Z,99249.82
2024-01-18T21:28:18.579Z,99258.70
2024-01-18T21:31:45.668Z,99256.36
2024-01-18T21:35:12.378Z,99264.72
2024-01-18T21:38:40.607Z,99275.84
2024-01-18T21:42:06.750Z,99278.78
2024-01-18T21:45:32.753Z,99282.37
2024-01-18T21:48:59.029Z,99291.58
2024-01-18T21:52:27.512Z,99300.40
2024-01-18T21:55:54.636Z,99303.77
2024-01-18T21:59:28.593Z,99306.89
2024-01-18T22:03:02.099Z,99310.70
2024-01-18T22:06:28.133Z,99312.45
2024-01-18T22:09:54.181Z,99320.83
2024-01-18T22:13:19.853Z,99321.06
2024-01-18T22:16:45.489Z,99322.95
2024-01-18T22:20:14.598Z,99325.67
2024-01-18T22:23:40.926Z,99329.61
2024-01-18T22:27:07.124Z,99330.47
2024-01-18T22:30:32.852Z,99332.52
2024-01-18T22:33:58.954Z,99336.96
2024-01-18T22:37:25.012Z,99349.95
2024-01-18T22:40:51.352Z,99360.23
2024-01-18T22:44:17.210Z,99362.88
2024-01-18T22:47:42.982Z,99365.84
2024-01-18T22:51:09.271Z,99374.73
2024-01-18T22:54:36.012Z,99378.35
2024-01-18T22:58:02.277Z,99384.38
2024-01-18T23:01:28.628Z,99385.10
2024-01-18T23:04:54.525Z,99384.01
2024-01-18T23:08:21.458Z,99390.36
2024-01-18T23:11:47.742Z,99392.11
2024-01-18T23:15:14.636Z,99404.94
2024-01-18T23:18:40.351Z,99411.80
2024-01-18T23:22:06.568Z,99401.78
2024-01-18T23:25:33.023Z,99412.16
2024-01-18T23:28:59.623Z,99423.39
2024-01-18T23:32:25.572Z,99430.01
2024-01-18T23:35:52.371Z,99425.89
2024-01-18T23:39:21.634Z,99430.09
2024-01-18T23:42:48.045Z,99427.50
2024-01-18T23:46:13.920Z,99436.94
2024-01-18T23:49:40.328Z,99446.25
2024-01-18T23:53:07.067Z,99457.65
2024-01-18T23:56:33.256Z,99463.73
2024-01-18T23:59:59.738Z,99469.55
